createdAt,value
2023-05-05T00:00:27.012Z,2.70
2023-05-05T00:02:55.071Z,2.40
2023-05-05T00:05:26.183Z,2.60
2023-05-05T00:08:07.431Z,2.80
2023-05-05T00:10:38.970Z,3.20
2023-05-05T00:15:53.191Z,2.80
2023-05-05T00:18:22.116Z,3.00
2023-05-05T00:20:49.505Z,2.80
2023-05-05T00:23:16.951Z,2.80
2023-05-05T00:25:47.524Z,2.60
2023-05-05T00:28:17.658Z,3.00
2023-05-05T00:31:05.109Z,3.20
2023-05-05T00:33:35.105Z,2.70
2023-05-05T00:36:05.435Z,2.80
2023-05-05T00:41:25.583Z,2.60
2023-05-05T00:43:53.469Z,2.50
2023-05-05T00:46:25.537Z,2.50
2023-05-05T00:48:53.739Z,2.40
2023-05-05T00:51:21.636Z,2.70
2023-05-05T00:53:48.772Z,2.30
2023-05-05T00:56:21.752Z,3.40
2023-05-05T00:58:55.805Z,2.80
2023-05-05T01:01:52.337Z,2.80
2023-05-05T01:04:27.755Z,2.50
2023-05-05T01:07:29.218Z,2.70
2023-05-05T01:11:02.658Z,2.50
2023-05-05T01:14:02.085Z,2.50
2023-05-05T01:16:55.554Z,2.70
2023-05-05T01:23:08.336Z,3.00
2023-05-05T01:26:02.184Z,2.80
2023-05-05T01:28:41.824Z,2.50
2023-05-05T01:31:45.354Z,2.80
2023-05-05T01:34:14.910Z,2.50
2023-05-05T01:36:46.039Z,2.70
2023-05-05T01:39:15.798Z,2.60
2023-05-05T01:41:47.605Z,2.50
2023-05-05T01:44:16.631Z,2.70
2023-05-05T01:46:49.980Z,2.80
2023-05-05T01:49:18.612Z,2.80
2023-05-05T01:51:49.043Z,2.90
2023-05-05T01:54:16.234Z,3.00
2023-05-05T01:56:43.460Z,2.90
2023-05-05T01:59:13.721Z,3.10
2023-05-05T02:01:41.555Z,3.00
2023-05-05T02:04:12.453Z,3.00
2023-05-05T02:06:39.521Z,2.70
2023-05-05T02:09:08.045Z,2.90
2023-05-05T02:11:36.086Z,3.00
2023-05-05T02:14:03.092Z,2.90
2023-05-05T02:16:32.594Z,2.60
2023-05-05T02:19:01.976Z,2.50
2023-05-05T02:21:29.038Z,2.80
2023-05-05T02:23:56.172Z,2.50
2023-05-05T02:26:23.096Z,2.80
2023-05-05T02:29:01.853Z,3.10
2023-05-05T02:31:29.516Z,2.70
2023-05-05T02:33:58.405Z,3.10
2023-05-05T02:36:28.081Z,2.80
2023-05-05T02:39:02.946Z,2.40
2023-05-05T02:41:31.536Z,2.70
2023-05-05T02:44:00.477Z,2.60
2023-05-05T02:46:28.471Z,2.60
2023-05-05T02:48:55.409Z,2.70
2023-05-05T02:51:23.264Z,2.70
2023-05-05T02:53:51.850Z,2.60
2023-05-05T02:56:57.634Z,2.70
2023-05-05T02:59:36.360Z,2.90
2023-05-05T03:02:15.181Z,2.90
2023-05-05T03:04:51.978Z,3.10
2023-05-05T03:07:24.389Z,2.80
2023-05-05T03:10:09.261Z,2.70
2023-05-05T03:12:48.732Z,2.70
2023-05-05T03:15:22.595Z,2.70
2023-05-05T03:17:50.056Z,3.10
2023-05-05T03:20:19.877Z,3.20
2023-05-05T03:22:47.436Z,2.80
2023-05-05T03:25:15.387Z,3.00
2023-05-05T03:27:42.624Z,2.90
2023-05-05T03:30:11.326Z,2.60
2023-05-05T03:32:46.612Z,2.70
2023-05-05T03:35:14.524Z,2.60
2023-05-05T03:37:42.108Z,2.90
2023-05-05T03:40:10.509Z,3.00
2023-05-05T03:42:47.466Z,3.20
2023-05-05T03:45:14.940Z,3.10
2023-05-05T03:47:41.970Z,2.80
2023-05-05T03:50:10.858Z,2.80
2023-05-05T03:52:38.297Z,2.90
2023-05-05T03:55:06.398Z,2.80
2023-05-05T03:57:34.475Z,2.80
2023-05-05T04:00:01.945Z,3.20
2023-05-05T04:02:30.647Z,3.30
2023-05-05T04:04:57.555Z,3.00
2023-05-05T04:07:25.635Z,3.00
2023-05-05T04:09:52.819Z,2.90
2023-05-05T04:12:20.384Z,2.80
2023-05-05T04:14:47.521Z,3.10
2023-05-05T04:17:14.496Z,3.10
2023-05-05T04:19:43.072Z,2.90
2023-05-05T04:22:11.082Z,3.10
2023-05-05T04:24:38.243Z,2.60
2023-05-05T04:27:05.656Z,2.70
2023-05-05T04:29:33.077Z,2.60
2023-05-05T04:32:02.769Z,2.80
2023-05-05T04:34:30.509Z,2.90
2023-05-05T04:36:57.456Z,2.70
2023-05-05T04:40:03.387Z,3.10
2023-05-05T04:45:58.321Z,2.70
2023-05-05T04:48:34.570Z,3.30
2023-05-05T04:51:05.232Z,2.90
2023-05-05T04:53:44.532Z,3.20
2023-05-05T04:56:17.267Z,2.70
2023-05-05T04:58:47.851Z,2.90
2023-05-05T05:01:16.758Z,3.00
2023-05-05T05:03:45.772Z,2.60
2023-05-05T05:06:23.152Z,2.80
2023-05-05T05:08:53.130Z,2.70
2023-05-05T05:11:21.618Z,2.70
2023-05-05T05:13:48.602Z,2.60
2023-05-05T05:16:15.669Z,2.50
2023-05-05T05:18:46.206Z,2.80
2023-05-05T05:21:13.705Z,2.90
2023-05-05T05:23:40.723Z,2.40
2023-05-05T05:26:07.712Z,2.20
2023-05-05T05:28:35.576Z,2.50
2023-05-05T05:31:02.581Z,2.50
2023-05-05T05:33:30.418Z,2.60
2023-05-05T05:35:57.988Z,2.40
2023-05-05T05:38:25.634Z,2.40
2023-05-05T05:40:55.594Z,2.20
2023-05-05T05:43:22.785Z,2.60
2023-05-05T05:45:50.295Z,2.40
2023-05-05T05:48:18.590Z,2.20
2023-05-05T05:50:45.790Z,2.20
2023-05-05T05:53:14.230Z,2.30
2023-05-05T05:55:45.491Z,2.30
2023-05-05T05:58:13.824Z,2.10
2023-05-05T06:00:40.926Z,2.40
2023-05-05T06:03:09.300Z,2.30
2023-05-05T06:05:37.620Z,2.30
2023-05-05T06:08:04.849Z,2.60
2023-05-05T06:10:35.394Z,2.50
2023-05-05T06:13:10.499Z,2.30
2023-05-05T06:15:40.969Z,2.60
2023-05-05T06:18:08.713Z,2.10
2023-05-05T06:20:36.626Z,2.20
2023-05-05T06:23:03.458Z,2.20
2023-05-05T06:25:33.483Z,1.90
2023-05-05T06:28:00.463Z,2.20
2023-05-05T06:30:27.273Z,2.00
2023-05-05T06:32:54.110Z,1.70
2023-05-05T06:35:21.859Z,2.20
2023-05-05T06:37:48.622Z,2.10
2023-05-05T06:40:15.623Z,2.30
2023-05-05T06:42:43.333Z,1.70
2023-05-05T06:45:15.235Z,1.60
2023-05-05T06:47:43.559Z,1.80
2023-05-05T06:50:12.108Z,1.70
2023-05-05T06:52:39.635Z,1.70
2023-05-05T06:55:06.966Z,2.00
2023-05-05T06:57:33.996Z,1.90
2023-05-05T07:00:03.128Z,1.70
2023-05-05T07:02:31.250Z,1.80
2023-05-05T07:04:58.131Z,1.80
2023-05-05T07:07:38.363Z,1.80
2023-05-05T07:10:06.280Z,1.60
2023-05-05T07:12:33.947Z,1.60
2023-05-05T07:15:09.373Z,1.50
2023-05-05T07:17:43.876Z,1.50
2023-05-05T07:20:11.513Z,1.30
2023-05-05T07:22:38.991Z,1.50
2023-05-05T07:25:09.564Z,1.40
2023-05-05T07:27:37.024Z,1.50
2023-05-05T07:30:11.144Z,1.60
2023-05-05T07:32:39.818Z,1.50
2023-05-05T07:38:33.970Z,1.40
2023-05-05T07:41:02.113Z,1.30
2023-05-05T07:43:38.822Z,1.50
2023-05-05T07:46:19.917Z,1.20
2023-05-05T07:49:09.943Z,1.50
2023-05-05T07:51:37.434Z,1.50
2023-05-05T07:54:04.814Z,1.50
2023-05-05T07:56:32.216Z,1.70
2023-05-05T07:58:58.995Z,1.50
2023-05-05T08:01:26.795Z,1.40
2023-05-05T08:03:54.060Z,1.70
2023-05-05T08:06:22.504Z,1.60
2023-05-05T08:08:49.507Z,1.50
2023-05-05T08:11:16.606Z,1.50
2023-05-05T08:13:47.966Z,1.30
2023-05-05T08:16:17.030Z,1.60
2023-05-05T08:18:47.431Z,1.60
2023-05-05T08:21:17.366Z,1.40
2023-05-05T08:23:45.873Z,1.40
2023-05-05T08:26:13.954Z,1.20
2023-05-05T08:28:41.787Z,1.40
2023-05-05T08:31:08.949Z,1.10
2023-05-05T08:33:36.098Z,1.50
2023-05-05T08:36:03.395Z,1.20
2023-05-05T08:38:30.657Z,1.70
2023-05-05T08:40:58.163Z,1.40
2023-05-05T08:43:25.480Z,1.20
2023-05-05T08:45:52.556Z,1.40
2023-05-05T08:48:22.785Z,1.40
2023-05-05T08:50:59.572Z,1.60
2023-05-05T08:54:01.857Z,1.60
2023-05-05T08:56:34.018Z,1.50
2023-05-05T08:59:01.446Z,1.30
2023-05-05T09:01:28.636Z,1.20
2023-05-05T09:03:55.868Z,1.40
2023-05-05T09:06:23.881Z,1.40
2023-05-05T09:08:50.874Z,1.60
2023-05-05T09:11:17.800Z,1.30
2023-05-05T09:13:44.641Z,1.40
2023-05-05T09:16:11.462Z,1.50
2023-05-05T09:18:40.449Z,1.50
2023-05-05T09:21:21.400Z,1.50
2023-05-05T09:24:09.120Z,1.20
2023-05-05T09:26:42.069Z,1.30
2023-05-05T09:29:09.083Z,1.30
2023-05-05T09:31:36.703Z,1.50
2023-05-05T09:34:16.646Z,1.40
2023-05-05T09:36:48.905Z,1.30
2023-05-05T09:39:20.440Z,1.30
2023-05-05T09:41:51.246Z,1.40
2023-05-05T09:44:34.674Z,1.50
2023-05-05T09:47:01.621Z,1.20
2023-05-05T09:49:29.492Z,1.40
2023-05-05T09:51:56.815Z,1.30
2023-05-05T09:54:29.695Z,1.30
2023-05-05T09:56:56.600Z,1.30
2023-05-05T09:59:23.573Z,1.30
2023-05-05T10:04:33.239Z,1.20
2023-05-05T10:07:00.345Z,1.40
2023-05-05T10:09:27.350Z,1.10
2023-05-05T10:11:54.733Z,1.30
2023-05-05T10:14:21.561Z,1.20
2023-05-05T10:16:50.490Z,1.40
2023-05-05T10:19:19.303Z,1.20
2023-05-05T10:21:52.903Z,1.00
2023-05-05T10:24:29.070Z,1.40
2023-05-05T10:26:56.508Z,1.20
2023-05-05T10:29:37.252Z,1.30
2023-05-05T10:32:27.110Z,1.30
2023-05-05T10:34:55.865Z,1.30
2023-05-05T10:37:22.725Z,1.20
2023-05-05T10:39:50.035Z,1.40
2023-05-05T10:42:19.254Z,1.30
2023-05-05T10:44:48.895Z,1.40
2023-05-05T10:47:16.678Z,1.30
2023-05-05T10:49:53.982Z,1.10
2023-05-05T10:52:39.489Z,1.40
2023-05-05T10:55:17.686Z,1.20
2023-05-05T10:57:45.711Z,1.70
2023-05-05T11:00:37.583Z,1.30
2023-05-05T11:03:16.537Z,1.40
2023-05-05T11:06:05.416Z,1.50
2023-05-05T11:08:35.795Z,1.20
2023-05-05T11:11:02.949Z,1.50
2023-05-05T11:13:30.993Z,1.40
2023-05-05T11:15:58.771Z,1.50
2023-05-05T11:18:38.783Z,1.40
2023-05-05T11:21:14.885Z,1.50
2023-05-05T11:23:47.388Z,1.30
2023-05-05T11:26:14.732Z,1.50
2023-05-05T11:29:02.324Z,1.30
2023-05-05T11:31:32.789Z,1.30
2023-05-05T11:34:27.930Z,1.50
2023-05-05T11:36:56.913Z,1.30
2023-05-05T11:39:38.653Z,1.70
2023-05-05T11:42:27.640Z,1.20
2023-05-05T11:44:54.585Z,1.40
2023-05-05T11:47:25.952Z,1.30
2023-05-05T11:49:55.349Z,1.40
2023-05-05T11:52:25.785Z,1.50
2023-05-05T11:54:52.846Z,1.30
2023-05-05T11:57:30.991Z,1.30
2023-05-05T12:00:03.483Z,1.30
2023-05-05T12:02:31.945Z,1.40
2023-05-05T12:04:59.424Z,1.20
2023-05-05T12:07:28.105Z,1.50
2023-05-05T12:09:56.424Z,1.50
2023-05-05T12:12:49.505Z,1.50
2023-05-05T12:17:47.450Z,1.60
2023-05-05T12:20:14.427Z,1.60
2023-05-05T12:22:41.406Z,1.30
2023-05-05T12:25:08.687Z,1.40
2023-05-05T12:27:35.615Z,1.50
2023-05-05T12:30:16.386Z,1.20
2023-05-05T12:32:43.842Z,1.30
2023-05-05T12:35:13.284Z,1.50
2023-05-05T12:37:40.194Z,1.30
2023-05-05T12:40:08.277Z,1.80
2023-05-05T12:42:39.523Z,1.30
2023-05-05T12:45:07.697Z,1.40
2023-05-05T12:47:36.417Z,1.50
2023-05-05T12:50:03.528Z,1.50
2023-05-05T12:52:43.993Z,1.30
2023-05-05T12:55:11.235Z,1.20
2023-05-05T12:57:38.711Z,1.70
2023-05-05T13:00:13.354Z,1.40
2023-05-05T13:02:40.618Z,1.60
2023-05-05T13:05:08.151Z,1.50
2023-05-05T13:07:36.044Z,1.40
2023-05-05T13:10:10.966Z,1.60
2023-05-05T13:12:38.765Z,1.80
2023-05-05T13:15:06.402Z,1.70
2023-05-05T13:17:34.803Z,1.70
2023-05-05T13:20:01.795Z,1.50
2023-05-05T13:22:28.847Z,1.50
2023-05-05T13:24:55.742Z,1.60
2023-05-05T13:27:23.109Z,1.80
2023-05-05T13:29:52.155Z,1.50
2023-05-05T13:32:19.211Z,1.50
2023-05-05T13:34:46.079Z,1.40
2023-05-05T13:37:13.944Z,1.90
2023-05-05T13:39:41.349Z,1.50
2023-05-05T13:42:08.223Z,2.00
2023-05-05T13:44:36.033Z,1.70
2023-05-05T13:47:04.455Z,1.60
2023-05-05T13:49:34.683Z,1.60
2023-05-05T13:52:02.233Z,1.70
2023-05-05T13:54:29.190Z,1.40
2023-05-05T13:56:57.933Z,1.50
2023-05-05T13:59:25.401Z,1.60
2023-05-05T14:01:52.334Z,1.70
2023-05-05T14:04:19.173Z,1.70
2023-05-05T14:06:45.992Z,1.60
2023-05-05T14:09:12.850Z,1.50
2023-05-05T14:11:40.614Z,1.80
2023-05-05T14:14:07.415Z,1.70
2023-05-05T14:16:35.584Z,1.70
2023-05-05T14:19:03.104Z,1.50
2023-05-05T14:21:32.053Z,1.50
2023-05-05T14:23:58.923Z,1.50
2023-05-05T14:26:25.845Z,1.40
2023-05-05T14:28:52.661Z,1.70
2023-05-05T14:31:19.553Z,1.40
2023-05-05T14:33:46.347Z,1.30
2023-05-05T14:36:13.777Z,1.80
2023-05-05T14:38:42.308Z,1.40
2023-05-05T14:41:09.253Z,1.60
2023-05-05T14:43:36.486Z,1.40
2023-05-05T14:46:06.100Z,1.70
2023-05-05T14:48:33.597Z,2.10
2023-05-05T14:51:00.536Z,1.60
2023-05-05T14:53:27.419Z,1.50
2023-05-05T14:55:54.372Z,1.30
2023-05-05T14:58:23.993Z,1.40
2023-05-05T15:00:52.503Z,1.50
2023-05-05T15:03:19.898Z,1.30
2023-05-05T15:05:46.754Z,1.50
2023-05-05T15:08:14.629Z,1.30
2023-05-05T15:10:41.343Z,1.50
2023-05-05T15:13:08.644Z,1.30
2023-05-05T15:15:35.670Z,1.40
2023-05-05T15:18:04.434Z,1.30
2023-05-05T15:20:31.375Z,1.40
2023-05-05T15:22:58.122Z,1.30
2023-05-05T15:25:24.867Z,1.30
2023-05-05T15:30:34.039Z,1.10
2023-05-05T15:33:00.954Z,1.20
2023-05-05T15:35:27.707Z,1.20
2023-05-05T15:37:54.741Z,1.20
2023-05-05T15:40:22.378Z,1.20
2023-05-05T15:42:52.023Z,1.40
2023-05-05T15:45:18.916Z,1.20
2023-05-05T15:47:45.933Z,1.40
2023-05-05T15:50:13.202Z,1.50
2023-05-05T15:52:40.081Z,1.00
2023-05-05T15:55:08.017Z,1.50
2023-05-05T15:57:35.419Z,1.40
2023-05-05T16:00:02.684Z,1.20
2023-05-05T16:02:35.209Z,1.60
2023-05-05T16:05:02.083Z,1.50
2023-05-05T16:07:29.294Z,2.10
2023-05-05T16:09:56.651Z,1.90
2023-05-05T16:12:23.595Z,1.80
2023-05-05T16:14:50.426Z,1.80
2023-05-05T16:17:17.264Z,1.70
2023-05-05T16:19:44.457Z,1.50
2023-05-05T16:22:11.223Z,1.70
2023-05-05T16:24:38.773Z,1.80
2023-05-05T16:27:05.586Z,1.70
2023-05-05T16:29:32.453Z,1.90
2023-05-05T16:32:00.279Z,1.50
2023-05-05T16:34:27.070Z,1.70
2023-05-05T16:36:53.839Z,1.50
2023-05-05T16:39:20.763Z,1.20
2023-05-05T16:41:47.590Z,1.50
2023-05-05T16:44:15.773Z,1.80
2023-05-05T16:46:42.661Z,1.70
2023-05-05T16:49:09.847Z,1.80
2023-05-05T16:51:37.665Z,2.00
2023-05-05T16:54:06.312Z,1.40
2023-05-05T16:56:34.279Z,1.60
2023-05-05T16:59:01.044Z,1.80
2023-05-05T17:01:28.074Z,1.80
2023-05-05T17:03:56.980Z,1.80
2023-05-05T17:06:24.752Z,1.40
2023-05-05T17:08:52.570Z,1.60
2023-05-05T17:11:19.453Z,1.70
2023-05-05T17:13:48.872Z,1.90
2023-05-05T17:16:15.727Z,2.10
2023-05-05T17:18:42.520Z,2.10
2023-05-05T17:21:09.282Z,2.70
2023-05-05T17:23:36.278Z,3.20
2023-05-05T17:26:04.655Z,3.10
2023-05-05T17:28:32.347Z,2.90
2023-05-05T17:30:59.552Z,4.10
2023-05-05T17:33:27.151Z,4.20
2023-05-05T17:35:54.116Z,3.70
2023-05-05T17:38:21.141Z,3.30
2023-05-05T17:40:48.034Z,3.10
2023-05-05T17:43:15.638Z,3.00
2023-05-05T17:45:42.736Z,2.90
2023-05-05T17:48:09.693Z,2.70
2023-05-05T17:50:36.850Z,2.90
2023-05-05T17:53:04.342Z,2.90
2023-05-05T17:55:31.515Z,3.20
2023-05-05T17:57:58.469Z,3.60
2023-05-05T18:00:26.685Z,4.30
2023-05-05T18:02:53.913Z,4.50
2023-05-05T18:05:21.021Z,5.60
2023-05-05T18:07:48.137Z,6.60
2023-05-05T18:10:16.126Z,6.00
2023-05-05T18:12:43.232Z,4.50
2023-05-05T18:15:10.798Z,4.30
2023-05-05T18:17:38.931Z,3.90
2023-05-05T18:20:06.671Z,3.70
2023-05-05T18:22:36.703Z,3.00
2023-05-05T18:27:35.729Z,2.60
2023-05-05T18:30:04.707Z,2.70
2023-05-05T18:32:34.240Z,3.10
2023-05-05T18:35:01.248Z,3.20
2023-05-05T18:37:28.738Z,2.80
2023-05-05T18:39:55.752Z,3.20
2023-05-05T18:42:23.726Z,3.70
2023-05-05T18:44:50.580Z,3.30
2023-05-05T18:47:17.385Z,3.10
2023-05-05T18:49:45.192Z,3.60
2023-05-05T18:52:13.085Z,4.40
2023-05-05T18:54:40.810Z,4.80
2023-05-05T18:57:08.137Z,4.60
2023-05-05T18:59:36.198Z,4.80
2023-05-05T19:02:03.128Z,4.50
2023-05-05T19:04:32.448Z,4.20
2023-05-05T19:06:59.466Z,4.80
2023-05-05T19:09:26.766Z,4.40
2023-05-05T19:11:53.532Z,4.90
2023-05-05T19:14:20.393Z,4.50
2023-05-05T19:16:47.225Z,4.90
2023-05-05T19:19:14.179Z,4.60
2023-05-05T19:21:41.078Z,4.00
2023-05-05T19:24:08.180Z,4.40
2023-05-05T19:26:36.114Z,3.90
2023-05-05T19:29:02.988Z,4.40
2023-05-05T19:31:30.700Z,4.10
2023-05-05T19:33:59.694Z,4.30
2023-05-05T19:36:27.326Z,4.00
2023-05-05T19:38:57.754Z,3.70
2023-05-05T19:41:30.594Z,3.50
2023-05-05T19:44:00.925Z,3.50
2023-05-05T19:46:28.054Z,3.30
2023-05-05T19:48:55.290Z,3.30
2023-05-05T19:51:22.358Z,3.40
2023-05-05T19:53:50.300Z,3.40
2023-05-05T19:56:17.076Z,3.20
2023-05-05T19:58:58.336Z,2.90
2023-05-05T20:01:25.758Z,2.90
2023-05-05T20:03:53.887Z,3.20
2023-05-05T20:06:20.948Z,3.50
2023-05-05T20:08:47.793Z,3.50
2023-05-05T20:11:15.168Z,3.40
2023-05-05T20:13:42.553Z,4.00
2023-05-05T20:16:09.537Z,3.90
2023-05-05T20:18:36.660Z,4.00
2023-05-05T20:21:03.532Z,4.50
2023-05-05T20:23:32.200Z,3.80
2023-05-05T20:25:59.085Z,3.80
2023-05-05T20:28:26.375Z,3.90
2023-05-05T20:30:53.329Z,3.60
2023-05-05T20:33:20.482Z,4.10
2023-05-05T20:35:47.237Z,3.30
2023-05-05T20:38:14.331Z,3.20
2023-05-05T20:40:41.548Z,3.40
2023-05-05T20:43:09.334Z,3.60
2023-05-05T20:45:36.668Z,3.40
2023-05-05T20:48:05.065Z,2.90
2023-05-05T20:50:32.437Z,2.60
2023-05-05T20:52:59.301Z,3.10
2023-05-05T20:55:26.193Z,2.90
2023-05-05T20:57:53.412Z,2.70
2023-05-05T21:00:20.220Z,2.60
2023-05-05T21:02:47.594Z,3.20
2023-05-05T21:05:14.581Z,2.80
2023-05-05T21:07:41.524Z,2.60
2023-05-05T21:10:10.096Z,2.80
2023-05-05T21:12:37.159Z,3.00
2023-05-05T21:15:04.402Z,2.70
2023-05-05T21:17:32.447Z,3.10
2023-05-05T21:19:59.458Z,2.80
2023-05-05T21:22:26.180Z,2.90
2023-05-05T21:24:54.442Z,3.00
2023-05-05T21:27:24.635Z,3.10
2023-05-05T21:29:51.681Z,2.80
2023-05-05T21:32:18.669Z,2.90
2023-05-05T21:34:45.763Z,2.90
2023-05-05T21:37:12.632Z,3.30
2023-05-05T21:39:39.494Z,3.20
2023-05-05T21:42:06.272Z,3.00
2023-05-05T21:44:33.046Z,2.90
2023-05-05T21:46:59.857Z,3.00
2023-05-05T21:49:26.713Z,2.90
2023-05-05T21:51:55.930Z,2.90
2023-05-05T21:54:23.094Z,3.00
2023-05-05T21:56:49.997Z,3.10
2023-05-05T21:59:17.415Z,2.60
2023-05-05T22:01:44.453Z,3.30
2023-05-05T22:04:11.259Z,2.90
2023-05-05T22:06:38.053Z,2.70
2023-05-05T22:09:04.863Z,2.70
2023-05-05T22:11:33.074Z,2.90
2023-05-05T22:14:00.729Z,3.00
2023-05-05T22:16:28.251Z,2.70
2023-05-05T22:18:55.046Z,3.30
2023-05-05T22:21:21.837Z,2.50
2023-05-05T22:23:48.833Z,2.70
2023-05-05T22:26:16.785Z,3.40
2023-05-05T22:28:43.722Z,2.70
2023-05-05T22:31:10.497Z,2.40
2023-05-05T22:33:37.501Z,2.30
2023-05-05T22:36:05.535Z,2.40
2023-05-05T22:38:32.955Z,2.50
2023-05-05T22:41:00.852Z,2.30
2023-05-05T22:43:29.124Z,2.00
2023-05-05T22:45:56.659Z,2.50
2023-05-05T22:48:25.217Z,2.30
2023-05-05T22:50:52.049Z,2.20
2023-05-05T22:53:18.873Z,2.30
2023-05-05T22:55:45.756Z,2.30
2023-05-05T22:58:12.532Z,2.00
2023-05-05T23:00:40.130Z,2.00
2023-05-05T23:03:06.990Z,2.00
2023-05-05T23:05:34.664Z,2.00
2023-05-05T23:08:01.806Z,2.10
2023-05-05T23:10:28.688Z,2.00
2023-05-05T23:12:55.695Z,2.50
2023-05-05T23:15:23.427Z,1.80
2023-05-05T23:17:50.332Z,1.90
2023-05-05T23:20:17.193Z,2.10
2023-05-05T23:22:44.081Z,2.00
2023-05-05T23:25:11.090Z,2.00
2023-05-05T23:27:39.790Z,1.80
2023-05-05T23:30:08.309Z,2.30
2023-05-05T23:32:35.607Z,2.10
2023-05-05T23:35:02.420Z,2.00
2023-05-05T23:37:29.552Z,2.10
2023-05-05T23:39:56.497Z,1.80
2023-05-05T23:42:23.874Z,2.00
2023-05-05T23:44:50.800Z,2.30
2023-05-05T23:47:17.630Z,1.90
2023-05-05T23:49:44.448Z,1.90
2023-05-05T23:52:11.330Z,1.90
2023-05-05T23:54:38.536Z,1.80
2023-05-05T23:57:06.081Z,1.90
2023-05-05T23:59:33.603Z,1.90
